BIRK/RKV METAR and TAF weather

Enter ICAO airport designator
Station Type Date Time Source
BIRK METAR 2020/09/20 07:00 UTC NOAA

BIRK 200700Z 09008KT 8000 -RA SCT023 BKN028 OVC045 06/04 Q0997


Station Type Date Time Source
BIRK Decoded METAR 2020/09/20 07:00 UTC NOAA

Reykjavik, Iceland (BIRK) 64-08N 021-54W 61M
Sep 20, 2020 - 03:00 AM EDT / 2020.09.20 0700 UTC
Wind: from the E (090 degrees) at 9 MPH (8 KT):0
Visibility: 4 mile(s):0
Sky conditions: overcast
Weather: light rain
Temperature: 42 F (6 C)
Dew Point: 39 F (4 C)
Relative Humidity: 86%
Pressure (altimeter): 29.44 in. Hg (0997 hPa)
ob: BIRK 200700Z 09008KT 8000 -RA SCT023 BKN028 OVC045 06/04 Q0997
cycle: 7

Station Type Date Time Source
BIRK TAF 2020/09/20 09:48 UTC NOAA

TAF BIRK 200731Z 2009/2109 15007KT 9999 -RA SCT012 BKN020 TX11/2012Z TN05/2106Z
BECMG 2009/2011 19022G34KT BKN010 OVC015
TEMPO 2010/2013 4000 RADZ BR OVC007
BECMG 2013/2015 28032G45KT 9999 -SHRA SCT020 BKN030
BECMG 2016/2018 26018KT

Example: see airport list